Pierson Station, Illinois
Current Conditions -  °F | °C
As of 3:54 AM on Sunday 23 Nov 2014 (Local Time) from KDEC Reporting Station
Light Rain Light Rain  
Wind Chill: 51°   Ceiling: 8500
Heat Index: 51°   Visibility: 10mi
Dew Point: 43°   Wind: 13mph
Humidity: 74%   Direction: 180°S
Pressure: 29.8"   Gusts: NA
Location:  39.8007°N, 88.5678°W
Report Text: KDEC 230954Z 18011KT 10SM -RA OVC085 11/06 A2980 RMK AO2 RAB51 SLP091 P0000 T01060061
Loading
Personal Weather Stations






























Interactive Weather Map New forecast layout! Learn more

10-Day Weather Forecast

Advertisements
Track Severe Weather on mobile